sensor_id;sensor_type;location;lat;lon;timestamp;pressure;altitude;pressure_sealevel;temperature;humidity
50011;BME280;35899;50.352;19.390;2022-07-29T00:01:50;98132.69;;;17.04;54.82
50011;BME280;35899;50.352;19.390;2022-07-29T00:04:19;98134.27;;;17.01;54.84
50011;BME280;35899;50.352;19.390;2022-07-29T00:06:46;98134.41;;;16.99;55.00
50011;BME280;35899;50.352;19.390;2022-07-29T00:09:13;98132.78;;;16.98;55.05
50011;BME280;35899;50.352;19.390;2022-07-29T00:11:40;98132.23;;;16.95;55.00
50011;BME280;35899;50.352;19.390;2022-07-29T00:14:08;98129.56;;;16.91;54.98
50011;BME280;35899;50.352;19.390;2022-07-29T00:16:35;98133.77;;;16.88;55.05
50011;BME280;35899;50.352;19.390;2022-07-29T00:19:03;98137.78;;;16.82;55.08
50011;BME280;35899;50.352;19.390;2022-07-29T00:21:30;98131.77;;;16.76;55.18
50011;BME280;35899;50.352;19.390;2022-07-29T00:23:57;98134.03;;;16.75;55.36
50011;BME280;35899;50.352;19.390;2022-07-29T00:26:24;98127.97;;;16.74;55.44
50011;BME280;35899;50.352;19.390;2022-07-29T00:28:53;98129.91;;;16.72;55.42
50011;BME280;35899;50.352;19.390;2022-07-29T00:31:20;98132.13;;;16.67;55.55
50011;BME280;35899;50.352;19.390;2022-07-29T00:33:47;98131.80;;;16.66;55.53
50011;BME280;35899;50.352;19.390;2022-07-29T00:36:14;98122.08;;;16.63;55.60
50011;BME280;35899;50.352;19.390;2022-07-29T00:38:41;98119.95;;;16.62;55.66
50011;BME280;35899;50.352;19.390;2022-07-29T00:41:11;98125.19;;;16.62;55.83
50011;BME280;35899;50.352;19.390;2022-07-29T00:43:38;98121.72;;;16.61;55.86
50011;BME280;35899;50.352;19.390;2022-07-29T00:46:06;98115.11;;;16.57;55.81
50011;BME280;35899;50.352;19.390;2022-07-29T00:48:33;98115.11;;;16.57;55.84
50011;BME280;35899;50.352;19.390;2022-07-29T00:51:01;98114.86;;;16.51;55.78
50011;BME280;35899;50.352;19.390;2022-07-29T00:53:30;98118.44;;;16.50;55.92
50011;BME280;35899;50.352;19.390;2022-07-29T00:55:59;98113.83;;;16.48;55.90
50011;BME280;35899;50.352;19.390;2022-07-29T00:58:27;98118.25;;;16.47;55.96
50011;BME280;35899;50.352;19.390;2022-07-29T01:00:54;98115.89;;;16.44;55.79
50011;BME280;35899;50.352;19.390;2022-07-29T01:03:21;98111.84;;;16.36;55.80
50011;BME280;35899;50.352;19.390;2022-07-29T01:05:48;98109.49;;;16.33;55.93
50011;BME280;35899;50.352;19.390;2022-07-29T01:08:16;98106.55;;;16.32;56.11
50011;BME280;35899;50.352;19.390;2022-07-29T01:10:44;98106.69;;;16.30;56.23
50011;BME280;35899;50.352;19.390;2022-07-29T01:13:14;98107.17;;;16.30;56.16
50011;BME280;35899;50.352;19.390;2022-07-29T01:15:49;98104.55;;;16.30;56.19
50011;BME280;35899;50.352;19.390;2022-07-29T01:21:35;98106.45;;;16.28;56.17
50011;BME280;35899;50.352;19.390;2022-07-29T01:27:41;98103.37;;;16.28;56.33
50011;BME280;35899;50.352;19.390;2022-07-29T01:30:15;98099.51;;;16.32;56.34
50011;BME280;35899;50.352;19.390;2022-07-29T01:32:44;98100.81;;;16.32;56.30
50011;BME280;35899;50.352;19.390;2022-07-29T01:35:20;98097.91;;;16.35;56.29
50011;BME280;35899;50.352;19.390;2022-07-29T01:43:57;98099.72;;;16.25;55.95
50011;BME280;35899;50.352;19.390;2022-07-29T01:46:34;98094.42;;;16.21;56.08
50011;BME280;35899;50.352;19.390;2022-07-29T01:49:13;98093.67;;;16.15;56.02
50011;BME280;35899;50.352;19.390;2022-07-29T01:51:47;98093.12;;;16.11;56.14
50011;BME280;35899;50.352;19.390;2022-07-29T01:56:58;98088.22;;;16.02;56.14
50011;BME280;35899;50.352;19.390;2022-07-29T01:59:26;98087.34;;;15.98;56.20
50011;BME280;35899;50.352;19.390;2022-07-29T02:01:57;98086.22;;;15.91;56.21
50011;BME280;35899;50.352;19.390;2022-07-29T02:04:26;98080.56;;;15.86;56.34
50011;BME280;35899;50.352;19.390;2022-07-29T02:07:02;98074.52;;;15.85;56.48
50011;BME280;35899;50.352;19.390;2022-07-29T02:09:29;98076.51;;;15.87;56.62
50011;BME280;35899;50.352;19.390;2022-07-29T02:11:59;98066.66;;;15.85;56.56
50011;BME280;35899;50.352;19.390;2022-07-29T02:14:29;98065.91;;;15.79;56.52
50011;BME280;35899;50.352;19.390;2022-07-29T02:17:00;98060.61;;;15.75;56.64
50011;BME280;35899;50.352;19.390;2022-07-29T02:19:32;98064.53;;;15.75;56.68
50011;BME280;35899;50.352;19.390;2022-07-29T02:22:00;98061.46;;;15.70;56.63
50011;BME280;35899;50.352;19.390;2022-07-29T02:24:28;98061.95;;;15.69;56.79
50011;BME280;35899;50.352;19.390;2022-07-29T02:26:59;98063.72;;;15.69;56.83
50011;BME280;35899;50.352;19.390;2022-07-29T02:29:28;98066.70;;;15.70;56.92
50011;BME280;35899;50.352;19.390;2022-07-29T02:31:58;98067.88;;;15.71;56.94
50011;BME280;35899;50.352;19.390;2022-07-29T02:34:27;98065.22;;;15.77;57.17
50011;BME280;35899;50.352;19.390;2022-07-29T02:36:55;98065.48;;;15.83;57.10
50011;BME280;35899;50.352;19.390;2022-07-29T02:39:24;98073.76;;;15.89;57.07
50011;BME280;35899;50.352;19.390;2022-07-29T02:41:58;98063.48;;;15.91;56.89
50011;BME280;35899;50.352;19.390;2022-07-29T02:44:27;98059.72;;;15.90;56.95
50011;BME280;35899;50.352;19.390;2022-07-29T02:47:16;98057.63;;;15.93;57.08
50011;BME280;35899;50.352;19.390;2022-07-29T03:03:34;98059.83;;;16.17;56.97
50011;BME280;35899;50.352;19.390;2022-07-29T03:06:04;98056.31;;;16.22;56.81
50011;BME280;35899;50.352;19.390;2022-07-29T03:08:32;98062.56;;;16.26;56.74
50011;BME280;35899;50.352;19.390;2022-07-29T03:11:00;98055.06;;;16.27;56.78
50011;BME280;35899;50.352;19.390;2022-07-29T03:13:29;98057.55;;;16.28;56.74
50011;BME280;35899;50.352;19.390;2022-07-29T03:15:57;98058.00;;;16.28;56.75
50011;BME280;35899;50.352;19.390;2022-07-29T03:18:26;98058.42;;;16.33;56.78
50011;BME280;35899;50.352;19.390;2022-07-29T03:20:53;98059.59;;;16.34;56.67
50011;BME280;35899;50.352;19.390;2022-07-29T03:23:22;98055.86;;;16.37;56.72
50011;BME280;35899;50.352;19.390;2022-07-29T03:25:52;98057.52;;;16.38;56.59
50011;BME280;35899;50.352;19.390;2022-07-29T03:28:20;98058.28;;;16.34;56.57
50011;BME280;35899;50.352;19.390;2022-07-29T03:30:48;98056.16;;;16.34;56.56
50011;BME280;35899;50.352;19.390;2022-07-29T03:33:16;98055.31;;;16.33;56.60
50011;BME280;35899;50.352;19.390;2022-07-29T03:35:43;98061.45;;;16.38;56.57
50011;BME280;35899;50.352;19.390;2022-07-29T03:38:10;98057.77;;;16.45;56.58
50011;BME280;35899;50.352;19.390;2022-07-29T03:43:19;98059.59;;;16.58;56.47
50011;BME280;35899;50.352;19.390;2022-07-29T03:45:49;98056.34;;;16.60;56.27
50011;BME280;35899;50.352;19.390;2022-07-29T03:48:21;98057.20;;;16.60;56.27
50011;BME280;35899;50.352;19.390;2022-07-29T03:50:49;98059.19;;;16.63;56.25
50011;BME280;35899;50.352;19.390;2022-07-29T03:53:17;98057.11;;;16.66;56.17
50011;BME280;35899;50.352;19.390;2022-07-29T03:55:50;98056.94;;;16.68;56.05
50011;BME280;35899;50.352;19.390;2022-07-29T03:58:20;98055.98;;;16.69;55.95
50011;BME280;35899;50.352;19.390;2022-07-29T04:00:48;98057.66;;;16.70;55.87
50011;BME280;35899;50.352;19.390;2022-07-29T04:03:15;98062.45;;;16.74;55.94
50011;BME280;35899;50.352;19.390;2022-07-29T04:05:42;98058.43;;;16.80;55.83
50011;BME280;35899;50.352;19.390;2022-07-29T04:08:09;98055.56;;;16.83;55.82
50011;BME280;35899;50.352;19.390;2022-07-29T04:10:37;98057.92;;;16.90;55.55
50011;BME280;35899;50.352;19.390;2022-07-29T04:13:05;98059.55;;;17.01;55.56
50011;BME280;35899;50.352;19.390;2022-07-29T04:15:32;98056.38;;;17.11;55.50
50011;BME280;35899;50.352;19.390;2022-07-29T04:17:59;98056.44;;;17.29;55.59
50011;BME280;35899;50.352;19.390;2022-07-29T04:20:26;98061.38;;;17.46;55.33
50011;BME280;35899;50.352;19.390;2022-07-29T04:22:53;98063.16;;;17.59;55.15
50011;BME280;35899;50.352;19.390;2022-07-29T04:25:20;98052.76;;;17.72;55.07
50011;BME280;35899;50.352;19.390;2022-07-29T04:27:47;98054.34;;;17.83;54.83
50011;BME280;35899;50.352;19.390;2022-07-29T04:30:27;98053.16;;;17.95;54.75
50011;BME280;35899;50.352;19.390;2022-07-29T04:32:54;98055.34;;;18.00;54.38
50011;BME280;35899;50.352;19.390;2022-07-29T04:35:22;98050.35;;;17.92;54.24
50011;BME280;35899;50.352;19.390;2022-07-29T04:37:49;98052.69;;;17.95;54.15
50011;BME280;35899;50.352;19.390;2022-07-29T04:40:16;98051.61;;;18.06;54.15
50011;BME280;35899;50.352;19.390;2022-07-29T04:42:43;98051.86;;;18.17;54.07
50011;BME280;35899;50.352;19.390;2022-07-29T04:45:10;98047.83;;;18.27;53.91
50011;BME280;35899;50.352;19.390;2022-07-29T04:47:38;98034.95;;;18.42;53.99
50011;BME280;35899;50.352;19.390;2022-07-29T04:50:06;98039.31;;;18.55;53.82
50011;BME280;35899;50.352;19.390;2022-07-29T04:52:34;98034.90;;;18.64;53.56
50011;BME280;35899;50.352;19.390;2022-07-29T04:55:03;98035.12;;;18.70;53.41
50011;BME280;35899;50.352;19.390;2022-07-29T04:57:31;98045.34;;;18.78;53.22
50011;BME280;35899;50.352;19.390;2022-07-29T04:59:58;98036.46;;;18.79;53.03
50011;BME280;35899;50.352;19.390;2022-07-29T05:02:26;98041.62;;;18.84;52.97
50011;BME280;35899;50.352;19.390;2022-07-29T05:04:53;98036.72;;;18.89;52.98
50011;BME280;35899;50.352;19.390;2022-07-29T05:07:20;98032.78;;;18.93;52.92
50011;BME280;35899;50.352;19.390;2022-07-29T05:09:47;98035.63;;;19.00;52.71
50011;BME280;35899;50.352;19.390;2022-07-29T05:12:14;98045.66;;;19.05;52.81
50011;BME280;35899;50.352;19.390;2022-07-29T05:14:41;98036.00;;;19.13;52.69
50011;BME280;35899;50.352;19.390;2022-07-29T05:17:08;98038.49;;;19.23;52.64
50011;BME280;35899;50.352;19.390;2022-07-29T05:19:35;98035.37;;;19.32;52.69
50011;BME280;35899;50.352;19.390;2022-07-29T05:22:02;98027.17;;;19.39;52.44
50011;BME280;35899;50.352;19.390;2022-07-29T05:24:29;98025.70;;;19.41;52.26
50011;BME280;35899;50.352;19.390;2022-07-29T05:26:56;98021.60;;;19.42;52.16
50011;BME280;35899;50.352;19.390;2022-07-29T05:29:23;98020.78;;;19.46;52.22
50011;BME280;35899;50.352;19.390;2022-07-29T05:31:50;98027.22;;;19.51;52.12
50011;BME280;35899;50.352;19.390;2022-07-29T05:34:19;98029.19;;;19.58;52.21
50011;BME280;35899;50.352;19.390;2022-07-29T05:36:46;98024.58;;;19.68;52.40
50011;BME280;35899;50.352;19.390;2022-07-29T05:39:13;98025.93;;;19.76;52.24
50011;BME280;35899;50.352;19.390;2022-07-29T05:41:40;98026.45;;;19.84;52.11
50011;BME280;35899;50.352;19.390;2022-07-29T05:44:07;98029.24;;;19.86;51.81
50011;BME280;35899;50.352;19.390;2022-07-29T05:46:34;98030.71;;;19.93;52.00
50011;BME280;35899;50.352;19.390;2022-07-29T05:49:01;98034.98;;;20.06;52.07
50011;BME280;35899;50.352;19.390;2022-07-29T05:51:28;98033.99;;;20.20;52.08
50011;BME280;35899;50.352;19.390;2022-07-29T05:53:56;98033.33;;;20.34;51.69
50011;BME280;35899;50.352;19.390;2022-07-29T05:56:24;98036.94;;;20.45;51.51
50011;BME280;35899;50.352;19.390;2022-07-29T05:58:52;98041.06;;;20.60;51.56
50011;BME280;35899;50.352;19.390;2022-07-29T06:01:19;98038.86;;;20.76;51.57
50011;BME280;35899;50.352;19.390;2022-07-29T06:03:46;98037.30;;;20.94;51.42
50011;BME280;35899;50.352;19.390;2022-07-29T06:06:13;98040.88;;;21.14;51.44
50011;BME280;35899;50.352;19.390;2022-07-29T06:08:40;98041.45;;;21.28;50.92
50011;BME280;35899;50.352;19.390;2022-07-29T06:11:07;98042.86;;;21.43;50.95
50011;BME280;35899;50.352;19.390;2022-07-29T06:13:35;98038.66;;;21.57;50.86
50011;BME280;35899;50.352;19.390;2022-07-29T06:16:02;98038.39;;;21.75;50.98
50011;BME280;35899;50.352;19.390;2022-07-29T06:18:30;98041.78;;;21.83;50.46
50011;BME280;35899;50.352;19.390;2022-07-29T06:20:57;98042.34;;;21.98;50.63
50011;BME280;35899;50.352;19.390;2022-07-29T06:23:24;98041.38;;;22.14;50.17
50011;BME280;35899;50.352;19.390;2022-07-29T06:25:51;98036.05;;;22.18;50.03
50011;BME280;35899;50.352;19.390;2022-07-29T06:28:18;98038.56;;;22.15;49.66
50011;BME280;35899;50.352;19.390;2022-07-29T06:30:45;98025.27;;;22.04;49.50
50011;BME280;35899;50.352;19.390;2022-07-29T06:33:17;98029.20;;;21.90;49.47
50011;BME280;35899;50.352;19.390;2022-07-29T06:35:45;98034.77;;;21.72;49.49
50011;BME280;35899;50.352;19.390;2022-07-29T06:38:13;98042.39;;;21.66;49.40
50011;BME280;35899;50.352;19.390;2022-07-29T06:40:44;98037.95;;;21.67;49.78
50011;BME280;35899;50.352;19.390;2022-07-29T06:43:38;98035.89;;;21.77;49.84
50011;BME280;35899;50.352;19.390;2022-07-29T06:46:09;98040.09;;;21.91;49.83
50011;BME280;35899;50.352;19.390;2022-07-29T06:48:38;98046.10;;;22.03;49.87
50011;BME280;35899;50.352;19.390;2022-07-29T06:51:07;98048.63;;;22.16;49.97
50011;BME280;35899;50.352;19.390;2022-07-29T06:53:34;98047.41;;;22.27;49.62
50011;BME280;35899;50.352;19.390;2022-07-29T06:56:03;98044.69;;;22.35;49.37
50011;BME280;35899;50.352;19.390;2022-07-29T06:58:33;98042.58;;;22.49;49.83
50011;BME280;35899;50.352;19.390;2022-07-29T07:01:02;98035.13;;;22.63;49.44
50011;BME280;35899;50.352;19.390;2022-07-29T07:03:31;98032.67;;;22.77;49.43
50011;BME280;35899;50.352;19.390;2022-07-29T07:05:59;98030.08;;;22.88;49.32
50011;BME280;35899;50.352;19.390;2022-07-29T07:08:26;98032.06;;;23.05;49.29
50011;BME280;35899;50.352;19.390;2022-07-29T07:10:53;98026.70;;;23.09;48.49
50011;BME280;35899;50.352;19.390;2022-07-29T07:13:21;98030.31;;;23.12;48.29
50011;BME280;35899;50.352;19.390;2022-07-29T07:15:48;98026.73;;;23.19;48.35
50011;BME280;35899;50.352;19.390;2022-07-29T07:18:17;98031.56;;;23.31;48.50
50011;BME280;35899;50.352;19.390;2022-07-29T07:20:45;98023.88;;;23.47;48.25
50011;BME280;35899;50.352;19.390;2022-07-29T07:23:12;98028.05;;;23.56;48.09
50011;BME280;35899;50.352;19.390;2022-07-29T07:25:39;98023.46;;;23.65;48.02
50011;BME280;35899;50.352;19.390;2022-07-29T07:28:06;98025.02;;;23.70;47.81
50011;BME280;35899;50.352;19.390;2022-07-29T07:30:33;98038.76;;;23.84;47.44
50011;BME280;35899;50.352;19.390;2022-07-29T07:33:00;98028.53;;;23.92;47.49
50011;BME280;35899;50.352;19.390;2022-07-29T07:35:27;98038.36;;;23.98;46.82
50011;BME280;35899;50.352;19.390;2022-07-29T07:37:55;98031.73;;;23.98;46.55
50011;BME280;35899;50.352;19.390;2022-07-29T07:40:24;98030.89;;;24.08;46.90
50011;BME280;35899;50.352;19.390;2022-07-29T07:42:51;98031.33;;;24.23;46.59
50011;BME280;35899;50.352;19.390;2022-07-29T07:45:18;98035.77;;;24.33;46.29
50011;BME280;35899;50.352;19.390;2022-07-29T07:47:45;98028.31;;;24.43;46.05
50011;BME280;35899;50.352;19.390;2022-07-29T07:50:12;98036.39;;;24.56;46.14
50011;BME280;35899;50.352;19.390;2022-07-29T07:52:47;98037.09;;;24.72;45.99
50011;BME280;35899;50.352;19.390;2022-07-29T07:55:15;98049.48;;;24.82;46.05
50011;BME280;35899;50.352;19.390;2022-07-29T07:57:43;98048.64;;;24.92;45.47
50011;BME280;35899;50.352;19.390;2022-07-29T08:00:11;98052.08;;;25.10;45.30
50011;BME280;35899;50.352;19.390;2022-07-29T08:02:40;98044.24;;;25.37;45.36
50011;BME280;35899;50.352;19.390;2022-07-29T08:05:09;98047.09;;;25.73;45.10
50011;BME280;35899;50.352;19.390;2022-07-29T08:07:37;98046.03;;;25.91;44.71
50011;BME280;35899;50.352;19.390;2022-07-29T08:10:05;98045.82;;;26.00;43.88
50011;BME280;35899;50.352;19.390;2022-07-29T08:12:33;98040.48;;;25.93;43.80
50011;BME280;35899;50.352;19.390;2022-07-29T08:15:00;98036.46;;;25.73;43.59
50011;BME280;35899;50.352;19.390;2022-07-29T08:17:27;98035.81;;;25.64;43.83
50011;BME280;35899;50.352;19.390;2022-07-29T08:19:54;98042.98;;;25.64;44.07
50011;BME280;35899;50.352;19.390;2022-07-29T08:22:21;98035.81;;;25.64;44.22
50011;BME280;35899;50.352;19.390;2022-07-29T08:24:48;98040.33;;;25.57;43.50
50011;BME280;35899;50.352;19.390;2022-07-29T08:27:18;98037.25;;;25.60;43.89
50011;BME280;35899;50.352;19.390;2022-07-29T08:29:46;98034.71;;;25.69;44.14
50011;BME280;35899;50.352;19.390;2022-07-29T08:32:14;98031.67;;;25.86;43.69
50011;BME280;35899;50.352;19.390;2022-07-29T08:34:41;98047.06;;;25.97;43.78
50011;BME280;35899;50.352;19.390;2022-07-29T08:37:08;98034.27;;;26.17;43.62
50011;BME280;35899;50.352;19.390;2022-07-29T08:39:35;98037.13;;;26.35;43.22
50011;BME280;35899;50.352;19.390;2022-07-29T08:42:02;98036.39;;;26.50;43.16
50011;BME280;35899;50.352;19.390;2022-07-29T08:44:29;98030.15;;;26.67;42.70
50011;BME280;35899;50.352;19.390;2022-07-29T08:46:58;98027.66;;;26.79;42.58
50011;BME280;35899;50.352;19.390;2022-07-29T08:49:25;98028.87;;;26.77;42.28
50011;BME280;35899;50.352;19.390;2022-07-29T08:51:53;98024.39;;;26.70;42.47
50011;BME280;35899;50.352;19.390;2022-07-29T08:54:21;98020.68;;;26.78;42.83
50011;BME280;35899;50.352;19.390;2022-07-29T08:56:50;98019.06;;;26.77;42.30
50011;BME280;35899;50.352;19.390;2022-07-29T08:59:19;98025.59;;;26.81;42.24
50011;BME280;35899;50.352;19.390;2022-07-29T09:01:48;98021.03;;;26.95;42.40
50011;BME280;35899;50.352;19.390;2022-07-29T09:04:18;98011.25;;;27.11;42.30
50011;BME280;35899;50.352;19.390;2022-07-29T09:06:51;98024.71;;;27.23;42.08
50011;BME280;35899;50.352;19.390;2022-07-29T09:09:18;98016.87;;;27.42;42.30
50011;BME280;35899;50.352;19.390;2022-07-29T09:11:45;98008.66;;;27.59;41.87
50011;BME280;35899;50.352;19.390;2022-07-29T09:14:13;98015.97;;;27.71;41.76
50011;BME280;35899;50.352;19.390;2022-07-29T09:19:26;98019.97;;;27.71;40.90
50011;BME280;35899;50.352;19.390;2022-07-29T09:21:55;98024.04;;;27.73;40.83
50011;BME280;35899;50.352;19.390;2022-07-29T09:27:10;98018.75;;;27.98;40.79
50011;BME280;35899;50.352;19.390;2022-07-29T09:29:39;98016.50;;;28.11;40.68
50011;BME280;35899;50.352;19.390;2022-07-29T09:32:09;98020.77;;;28.28;40.20
50011;BME280;35899;50.352;19.390;2022-07-29T09:34:37;98024.80;;;28.37;40.16
50011;BME280;35899;50.352;19.390;2022-07-29T09:37:04;98028.14;;;28.51;40.64
50011;BME280;35899;50.352;19.390;2022-07-29T09:39:34;98021.37;;;28.74;40.32
50011;BME280;35899;50.352;19.390;2022-07-29T09:42:05;98024.54;;;28.92;39.71
50011;BME280;35899;50.352;19.390;2022-07-29T09:44:51;98005.79;;;29.17;38.90
50011;BME280;35899;50.352;19.390;2022-07-29T09:47:19;98005.79;;;29.17;38.90
50011;BME280;35899;50.352;19.390;2022-07-29T09:49:57;98007.91;;;29.08;38.61
50011;BME280;35899;50.352;19.390;2022-07-29T09:52:26;98003.24;;;29.13;38.67
50011;BME280;35899;50.352;19.390;2022-07-29T09:57:34;97989.61;;;29.42;38.81
50011;BME280;35899;50.352;19.390;2022-07-29T10:00:07;97993.67;;;29.44;38.10
50011;BME280;35899;50.352;19.390;2022-07-29T10:02:41;97996.19;;;29.18;37.96
50011;BME280;35899;50.352;19.390;2022-07-29T10:05:22;97975.19;;;29.13;38.75
50011;BME280;35899;50.352;19.390;2022-07-29T10:07:55;97992.50;;;29.61;38.10
50011;BME280;35899;50.352;19.390;2022-07-29T10:13:05;97992.20;;;30.62;37.80
50011;BME280;35899;50.352;19.390;2022-07-29T10:15:35;97981.70;;;31.12;36.72
50011;BME280;35899;50.352;19.390;2022-07-29T10:18:09;97983.95;;;31.61;35.61
50011;BME280;35899;50.352;19.390;2022-07-29T10:20:38;97983.94;;;32.09;34.95
50011;BME280;35899;50.352;19.390;2022-07-29T10:23:06;97985.78;;;32.62;34.47
50011;BME280;35899;50.352;19.390;2022-07-29T10:25:33;97984.16;;;33.05;34.38
50011;BME280;35899;50.352;19.390;2022-07-29T10:28:00;97981.42;;;33.55;33.65
50011;BME280;35899;50.352;19.390;2022-07-29T10:30:27;97984.34;;;34.13;32.97
50011;BME280;35899;50.352;19.390;2022-07-29T10:35:54;97976.97;;;34.35;31.67
50011;BME280;35899;50.352;19.390;2022-07-29T10:41:35;97971.20;;;34.21;31.41
50011;BME280;35899;50.352;19.390;2022-07-29T10:44:22;97975.03;;;34.28;31.36
50011;BME280;35899;50.352;19.390;2022-07-29T10:46:51;97970.75;;;34.35;30.84
50011;BME280;35899;50.352;19.390;2022-07-29T10:49:23;97968.70;;;34.52;30.96
50011;BME280;35899;50.352;19.390;2022-07-29T10:52:01;97970.05;;;34.57;30.72
50011;BME280;35899;50.352;19.390;2022-07-29T10:57:19;97960.44;;;34.19;30.40
50011;BME280;35899;50.352;19.390;2022-07-29T11:05:11;97963.48;;;33.33;31.34
50011;BME280;35899;50.352;19.390;2022-07-29T11:10:48;97959.16;;;34.87;31.09
50011;BME280;35899;50.352;19.390;2022-07-29T11:16:17;97956.97;;;36.79;28.96
50011;BME280;35899;50.352;19.390;2022-07-29T11:21:43;97955.48;;;37.02;27.44
50011;BME280;35899;50.352;19.390;2022-07-29T11:24:33;97957.47;;;37.36;26.90
50011;BME280;35899;50.352;19.390;2022-07-29T11:27:18;97949.72;;;37.61;26.25
50011;BME280;35899;50.352;19.390;2022-07-29T11:29:55;97958.08;;;37.25;26.78
50011;BME280;35899;50.352;19.390;2022-07-29T11:32:36;97952.47;;;36.49;26.99
50011;BME280;35899;50.352;19.390;2022-07-29T11:35:23;97951.06;;;36.67;27.43
50011;BME280;35899;50.352;19.390;2022-07-29T11:41:24;97945.17;;;37.51;27.31
50011;BME280;35899;50.352;19.390;2022-07-29T11:43:56;97937.11;;;37.44;27.26
50011;BME280;35899;50.352;19.390;2022-07-29T11:46:46;97940.66;;;36.94;26.67
50011;BME280;35899;50.352;19.390;2022-07-29T11:49:25;97935.45;;;36.48;26.71
50011;BME280;35899;50.352;19.390;2022-07-29T11:51:54;97934.16;;;36.10;27.39
50011;BME280;35899;50.352;19.390;2022-07-29T11:54:30;97936.10;;;35.55;27.70
50011;BME280;35899;50.352;19.390;2022-07-29T11:56:58;97938.75;;;35.17;28.24
50011;BME280;35899;50.352;19.390;2022-07-29T11:59:25;97943.68;;;34.64;28.36
50011;BME280;35899;50.352;19.390;2022-07-29T12:01:58;97946.34;;;34.06;28.74
50011;BME280;35899;50.352;19.390;2022-07-29T12:04:25;97942.98;;;33.57;29.25
50011;BME280;35899;50.352;19.390;2022-07-29T12:06:54;97936.25;;;33.24;29.70
50011;BME280;35899;50.352;19.390;2022-07-29T12:09:23;97940.00;;;33.26;30.15
50011;BME280;35899;50.352;19.390;2022-07-29T12:11:58;97942.08;;;33.46;29.92
50011;BME280;35899;50.352;19.390;2022-07-29T12:14:28;97939.91;;;34.13;29.52
50011;BME280;35899;50.352;19.390;2022-07-29T12:16:56;97939.00;;;34.39;29.77
50011;BME280;35899;50.352;19.390;2022-07-29T12:19:25;97934.63;;;34.94;29.47
50011;BME280;35899;50.352;19.390;2022-07-29T12:21:54;97930.13;;;36.07;28.75
50011;BME280;35899;50.352;19.390;2022-07-29T12:24:24;97941.56;;;37.64;28.05
50011;BME280;35899;50.352;19.390;2022-07-29T12:26:56;97942.91;;;39.14;26.85
50011;BME280;35899;50.352;19.390;2022-07-29T12:29:25;97943.34;;;40.61;24.90
50011;BME280;35899;50.352;19.390;2022-07-29T12:31:57;97933.20;;;42.45;23.84
50011;BME280;35899;50.352;19.390;2022-07-29T12:34:26;97929.69;;;43.92;22.06
50011;BME280;35899;50.352;19.390;2022-07-29T12:36:53;97930.66;;;44.35;21.21
50011;BME280;35899;50.352;19.390;2022-07-29T12:39:21;97932.53;;;44.52;20.53
50011;BME280;35899;50.352;19.390;2022-07-29T12:41:49;97927.82;;;44.38;20.43
50011;BME280;35899;50.352;19.390;2022-07-29T12:44:16;97927.16;;;43.87;20.90
50011;BME280;35899;50.352;19.390;2022-07-29T12:46:43;97927.13;;;42.76;20.65
50011;BME280;35899;50.352;19.390;2022-07-29T12:49:22;97930.94;;;41.87;21.44
50011;BME280;35899;50.352;19.390;2022-07-29T12:51:49;97922.25;;;41.42;21.16
50011;BME280;35899;50.352;19.390;2022-07-29T12:54:16;97925.20;;;41.43;22.11
50011;BME280;35899;50.352;19.390;2022-07-29T12:56:44;97926.47;;;42.22;21.77
50011;BME280;35899;50.352;19.390;2022-07-29T12:59:16;97919.38;;;43.07;21.29
50011;BME280;35899;50.352;19.390;2022-07-29T13:01:46;97912.11;;;43.87;20.90
50011;BME280;35899;50.352;19.390;2022-07-29T13:04:29;97908.36;;;44.01;20.29
50011;BME280;35899;50.352;19.390;2022-07-29T13:06:59;97902.77;;;44.42;20.42
50011;BME280;35899;50.352;19.390;2022-07-29T13:09:45;97910.01;;;45.24;19.94
50011;BME280;35899;50.352;19.390;2022-07-29T13:12:13;97906.33;;;45.87;18.78
50011;BME280;35899;50.352;19.390;2022-07-29T13:14:42;97900.68;;;45.32;19.10
50011;BME280;35899;50.352;19.390;2022-07-29T13:17:22;97908.08;;;43.52;19.65
50011;BME280;35899;50.352;19.390;2022-07-29T13:19:51;97909.09;;;41.89;20.48
50011;BME280;35899;50.352;19.390;2022-07-29T13:22:22;97912.92;;;40.59;21.45
50011;BME280;35899;50.352;19.390;2022-07-29T13:24:57;97908.52;;;39.61;22.00
50011;BME280;35899;50.352;19.390;2022-07-29T13:27:30;97914.95;;;38.72;22.79
50011;BME280;35899;50.352;19.390;2022-07-29T13:29:59;97906.30;;;37.98;23.64
50011;BME280;35899;50.352;19.390;2022-07-29T13:32:28;97901.53;;;37.24;23.88
50011;BME280;35899;50.352;19.390;2022-07-29T13:34:59;97896.78;;;36.48;24.46
50011;BME280;35899;50.352;19.390;2022-07-29T13:37:26;97894.52;;;35.90;25.34
50011;BME280;35899;50.352;19.390;2022-07-29T13:39:56;97890.50;;;35.51;25.96
50011;BME280;35899;50.352;19.390;2022-07-29T13:42:24;97900.19;;;35.24;26.61
50011;BME280;35899;50.352;19.390;2022-07-29T13:44:52;97893.91;;;34.85;27.09
50011;BME280;35899;50.352;19.390;2022-07-29T13:47:21;97887.21;;;35.16;27.15
50011;BME280;35899;50.352;19.390;2022-07-29T13:49:49;97879.01;;;36.34;26.46
50011;BME280;35899;50.352;19.390;2022-07-29T13:52:16;97883.72;;;38.10;25.94
50011;BME280;35899;50.352;19.390;2022-07-29T13:54:43;97874.84;;;40.20;24.51
50011;BME280;35899;50.352;19.390;2022-07-29T13:57:10;97874.16;;;41.03;23.51
50011;BME280;35899;50.352;19.390;2022-07-29T14:02:10;97869.50;;;42.41;21.59
50011;BME280;35899;50.352;19.390;2022-07-29T14:04:37;97864.01;;;42.78;21.00
50011;BME280;35899;50.352;19.390;2022-07-29T14:07:04;97855.47;;;43.49;19.94
50011;BME280;35899;50.352;19.390;2022-07-29T14:09:32;97847.78;;;44.05;19.48
50011;BME280;35899;50.352;19.390;2022-07-29T14:11:59;97850.92;;;44.45;19.41
50011;BME280;35899;50.352;19.390;2022-07-29T14:14:27;97855.16;;;45.06;18.57